Time;durP1;ratioP1;P1;durP2;ratioP2;P2;SDS_P1;SDS_P2;PMS_P1;PMS_P2;Temp;Humidity;BMP_temperature;BMP_pressure;BME280_temperature;BME280_humidity;BME280_pressure;Samples;Min_cycle;Max_cycle;Signal;HPM_P1;HPM_P2
2021/09/04 00:00:15;;;;;;;32.25;27.73;;;;;;;11.93;100.00;99158.91;2055046;28;20617;-72
2021/09/04 00:01:16;;;;;;;35.72;29.05;;;;;;;11.92;100.00;99157.31;2055502;28;20257;-72
2021/09/04 00:02:20;;;;;;;32.17;27.92;;;;;;;11.95;100.00;99149.47;2063568;28;20225;-71
2021/09/04 00:03:23;;;;;;;34.10;28.55;;;;;;;11.96;100.00;99145.72;2063980;28;20319;-73
2021/09/04 00:04:25;;;;;;;35.10;29.17;;;;;;;11.98;100.00;99150.75;2064160;28;20239;-72
2021/09/04 00:05:26;;;;;;;36.00;28.90;;;;;;;11.99;100.00;99153.13;2064003;28;20387;-73
2021/09/04 00:06:27;;;;;;;34.97;29.55;;;;;;;12.00;100.00;99159.28;2064190;28;20601;-73
2021/09/04 00:07:30;;;;;;;32.27;28.27;;;;;;;12.01;100.00;99160.84;2063691;28;20220;-72
2021/09/04 00:08:32;;;;;;;41.25;29.10;;;;;;;12.00;100.00;99153.94;2063640;28;20217;-72
2021/09/04 00:09:34;;;;;;;36.57;29.47;;;;;;;12.02;100.00;99146.38;2064218;28;20256;-72
2021/09/04 00:10:37;;;;;;;30.92;27.55;;;;;;;12.01;100.00;99150.16;2064156;28;20777;-72
2021/09/04 00:11:38;;;;;;;32.00;28.38;;;;;;;11.99;100.00;99147.78;2063052;28;20303;-72
2021/09/04 00:12:40;;;;;;;32.90;29.10;;;;;;;11.96;100.00;99147.59;2063583;28;20233;-72
2021/09/04 00:13:42;;;;;;;33.13;27.90;;;;;;;11.96;100.00;99147.59;2064171;28;20692;-72
2021/09/04 00:14:43;;;;;;;37.08;29.13;;;;;;;11.94;100.00;99150.56;2064183;28;20224;-72
2021/09/04 00:15:46;;;;;;;31.65;27.65;;;;;;;11.94;100.00;99147.91;2064185;28;20243;-72
2021/09/04 00:16:48;;;;;;;33.55;27.23;;;;;;;11.93;100.00;99148.22;2064207;28;20224;-71
2021/09/04 00:17:51;;;;;;;33.10;27.83;;;;;;;11.95;100.00;99146.00;2064181;28;20718;-71
2021/09/04 00:18:53;;;;;;;31.70;27.55;;;;;;;11.94;100.00;99142.56;2063577;28;20224;-72
2021/09/04 00:19:55;;;;;;;33.40;27.35;;;;;;;11.97;100.00;99144.59;2063132;28;20240;-72
2021/09/04 00:20:55;;;;;;;36.05;28.80;;;;;;;11.99;100.00;99152.31;2063361;28;20236;-72
2021/09/04 00:21:57;;;;;;;33.10;26.80;;;;;;;11.97;100.00;99147.28;2055369;28;20233;-72
2021/09/04 00:23:00;;;;;;;32.95;29.33;;;;;;;11.97;100.00;99138.47;2055423;28;20632;-72
2021/09/04 00:24:00;;;;;;;37.50;28.55;;;;;;;12.04;100.00;99142.31;2063607;28;20233;-72
2021/09/04 00:25:02;;;;;;;30.87;27.57;;;;;;;12.05;100.00;99148.44;2065705;28;20224;-71
2021/09/04 00:26:03;;;;;;;33.80;27.38;;;;;;;12.02;100.00;99144.50;2064935;28;20315;-72
2021/09/04 00:27:05;;;;;;;35.07;28.43;;;;;;;11.99;100.00;99144.31;2065180;28;20221;-74
2021/09/04 00:28:06;;;;;;;34.45;27.23;;;;;;;11.99;100.00;99147.78;2065113;28;20671;-72
2021/09/04 00:29:07;;;;;;;37.07;27.43;;;;;;;11.96;100.00;99145.72;2064802;28;20576;-73
2021/09/04 00:30:09;;;;;;;33.47;27.83;;;;;;;11.95;100.00;99156.72;2065815;28;20698;-72
2021/09/04 00:31:17;;;;;;;33.92;26.98;;;;;;;11.90;100.00;99144.22;2065703;28;20225;-72
2021/09/04 00:32:17;;;;;;;30.95;27.63;;;;;;;11.90;100.00;99149.56;2065764;28;20640;-72
2021/09/04 00:33:19;;;;;;;30.87;27.57;;;;;;;11.85;100.00;99147.81;2065900;28;20225;-72
2021/09/04 00:34:21;;;;;;;31.20;27.98;;;;;;;11.87;100.00;99144.84;2065646;28;20228;-72
2021/09/04 00:35:23;;;;;;;32.10;28.45;;;;;;;11.84;100.00;99145.47;2065548;28;20233;-74
2021/09/04 00:36:23;;;;;;;32.72;28.23;;;;;;;11.85;100.00;99147.03;2065054;28;20232;-72
2021/09/04 00:37:25;;;;;;;31.40;27.83;;;;;;;11.83;100.00;99138.53;2065050;28;20239;-72
2021/09/04 00:38:25;;;;;;;39.55;29.40;;;;;;;11.84;100.00;99145.47;2065832;28;20235;-72
2021/09/04 00:39:27;;;;;;;31.97;27.70;;;;;;;11.80;100.00;99134.56;2065881;28;20247;-72
2021/09/04 00:40:28;;;;;;;34.10;28.00;;;;;;;11.79;100.00;99137.50;2065715;28;20221;-71
2021/09/04 00:41:34;;;;;;;32.20;28.50;;;;;;;11.78;100.00;99142.06;2065624;28;20659;-72
2021/09/04 00:42:34;;;;;;;35.33;28.48;;;;;;;11.78;100.00;99142.06;2065703;28;20233;-72
2021/09/04 00:43:36;;;;;;;33.83;28.10;;;;;;;11.75;100.00;99142.69;2065732;28;20274;-72
2021/09/04 00:44:37;;;;;;;34.92;28.67;;;;;;;11.72;100.00;99132.56;2064693;28;20240;-73
2021/09/04 00:45:41;;;;;;;34.47;28.03;;;;;;;11.72;100.00;99142.47;2065023;28;20228;-72
2021/09/04 00:46:42;;;;;;;31.77;27.70;;;;;;;11.70;100.00;99145.44;2065726;28;20232;-72
2021/09/04 00:47:56;;;;;;;35.60;28.27;;;;;;;11.67;100.00;99145.28;2065634;28;20228;-72
2021/09/04 00:48:57;;;;;;;30.40;27.23;;;;;;;11.66;100.00;99149.03;2065020;28;20459;-72
2021/09/04 00:50:00;;;;;;;31.92;27.30;;;;;;;11.66;100.00;99143.69;2056926;28;20324;-72
2021/09/04 00:51:01;;;;;;;33.67;27.92;;;;;;;11.63;100.00;99146.94;2065000;28;20244;-72
2021/09/04 00:52:03;;;;;;;36.33;26.87;;;;;;;11.65;100.00;99142.91;2065752;28;20224;-72
2021/09/04 00:53:06;;;;;;;31.63;27.45;;;;;;;11.64;100.00;99144.00;2065717;28;20228;-72
2021/09/04 00:54:08;;;;;;;31.33;27.90;;;;;;;11.63;100.00;99139.72;2064525;28;20687;-74
2021/09/04 00:55:09;;;;;;;31.25;27.45;;;;;;;11.61;100.00;99144.59;2056888;28;20252;-72
2021/09/04 00:56:14;;;;;;;30.58;26.88;;;;;;;11.61;100.00;99134.69;2057307;28;20646;-72
2021/09/04 00:57:15;;;;;;;31.70;28.15;;;;;;;11.61;100.00;99148.03;2064880;28;20313;-72
2021/09/04 00:58:18;;;;;;;31.48;27.75;;;;;;;11.59;100.00;99146.78;2064791;28;20247;-72
2021/09/04 00:59:20;;;;;;;32.03;28.38;;;;;;;11.58;100.00;99142.53;2064986;28;20255;-72
2021/09/04 01:00:23;;;;;;;31.67;27.07;;;;;;;11.59;100.00;99139.53;2064926;28;20232;-73
2021/09/04 01:01:24;;;;;;;30.10;26.80;;;;;;;11.60;100.00;99135.00;2064498;28;20703;-74
2021/09/04 01:02:28;;;;;;;39.75;27.90;;;;;;;11.62;100.00;99143.50;2064640;28;20240;-72
2021/09/04 01:03:29;;;;;;;31.48;28.08;;;;;;;11.61;100.00;99141.91;2064819;28;20236;-74
2021/09/04 01:04:31;;;;;;;31.00;27.02;;;;;;;11.58;100.00;99137.97;2064651;28;20683;-73
2021/09/04 01:05:33;;;;;;;29.30;26.08;;;;;;;11.63;100.00;99142.41;2064683;28;20256;-73
2021/09/04 01:06:38;;;;;;;32.22;27.05;;;;;;;11.62;100.00;99138.16;2065499;28;20228;-73
2021/09/04 01:07:39;;;;;;;35.58;26.33;;;;;;;11.61;100.00;99136.56;2065180;28;20279;-73
2021/09/04 01:08:41;;;;;;;35.03;28.65;;;;;;;11.60;100.00;99130.44;2065600;28;20247;-73
2021/09/04 01:09:43;;;;;;;31.75;26.83;;;;;;;11.61;100.00;99137.34;2064760;28;20217;-74
2021/09/04 01:10:45;;;;;;;29.10;26.00;;;;;;;11.61;100.00;99139.25;2064792;28;20224;-73
2021/09/04 01:11:46;;;;;;;31.90;27.98;;;;;;;11.59;100.00;99144.09;2065450;28;20232;-74
2021/09/04 01:12:48;;;;;;;29.77;26.42;;;;;;;11.63;100.00;99133.59;2065425;28;20583;-74
2021/09/04 01:13:49;;;;;;;29.35;26.33;;;;;;;11.59;100.00;99128.84;2065414;28;20234;-73
2021/09/04 01:14:50;;;;;;;29.87;26.53;;;;;;;11.57;100.00;99131.03;2064753;28;20261;-74
2021/09/04 01:15:51;;;;;;;34.33;27.15;;;;;;;11.59;100.00;99141.44;2064635;28;20550;-73
2021/09/04 01:16:53;;;;;;;30.90;26.70;;;;;;;11.56;100.00;99139.38;2065107;28;20251;-74
2021/09/04 01:17:53;;;;;;;30.50;27.17;;;;;;;11.54;100.00;99141.53;2065367;28;20304;-73
2021/09/04 01:18:55;;;;;;;31.03;27.33;;;;;;;11.52;100.00;99144.50;2065332;28;20229;-74
2021/09/04 01:19:56;;;;;;;31.95;27.23;;;;;;;11.51;100.00;99144.81;2064579;28;20370;-73
2021/09/04 01:21:01;;;;;;;33.63;27.40;;;;;;;11.50;100.00;99145.91;2064638;28;20233;-74
2021/09/04 01:22:03;;;;;;;34.63;27.92;;;;;;;11.47;100.00;99146.50;2065378;28;20233;-73
2021/09/04 01:23:04;;;;;;;35.80;28.02;;;;;;;11.46;100.00;99144.91;2065301;28;20702;-73
2021/09/04 01:24:07;;;;;;;32.13;27.60;;;;;;;11.43;100.00;99137.50;2065410;28;20657;-73
2021/09/04 01:25:09;;;;;;;32.33;27.45;;;;;;;11.40;100.00;99138.91;2065140;28;20585;-74
2021/09/04 01:26:12;;;;;;;34.30;27.92;;;;;;;11.38;100.00;99145.59;2065201;28;20229;-73
2021/09/04 01:27:14;;;;;;;31.38;27.98;;;;;;;11.34;100.00;99142.75;2065372;28;20294;-73
2021/09/04 01:28:15;;;;;;;31.67;28.25;;;;;;;11.32;100.00;99145.72;2064422;28;20229;-73
2021/09/04 01:29:18;;;;;;;31.53;28.07;;;;;;;11.30;100.00;99142.56;2064791;28;20220;-73
2021/09/04 01:30:19;;;;;;;38.33;29.60;;;;;;;11.30;100.00;99147.13;2064650;28;20217;-73
2021/09/04 01:31:20;;;;;;;34.43;28.77;;;;;;;11.30;100.00;99155.91;2065309;28;20283;-73
2021/09/04 01:32:21;;;;;;;34.42;29.33;;;;;;;11.29;100.00;99151.66;2065354;28;20244;-73
2021/09/04 01:33:23;;;;;;;37.03;31.27;;;;;;;11.28;100.00;99149.28;2064965;28;20229;-75
2021/09/04 01:34:23;;;;;;;35.85;30.65;;;;;;;11.26;100.00;99149.59;2065216;28;20608;-73
2021/09/04 01:35:26;;;;;;;38.67;31.07;;;;;;;11.28;100.00;99151.94;2064972;28;20331;-74
2021/09/04 01:36:29;;;;;;;39.03;31.02;;;;;;;11.28;100.00;99143.94;2064568;28;20639;-73
2021/09/04 01:37:32;;;;;;;42.60;33.08;;;;;;;11.25;100.00;99147.22;2064699;28;20224;-73
2021/09/04 01:38:33;;;;;;;39.55;31.17;;;;;;;11.29;100.00;99143.66;2056880;28;20221;-74
2021/09/04 01:39:34;;;;;;;39.60;32.17;;;;;;;11.27;100.00;99148.50;2064605;28;20307;-73
2021/09/04 01:40:35;;;;;;;39.78;32.13;;;;;;;11.28;100.00;99150.06;2065311;28;20303;-73
2021/09/04 01:41:40;;;;;;;37.90;31.23;;;;;;;11.26;100.00;99149.59;2065340;28;20232;-74
2021/09/04 01:42:41;;;;;;;39.03;31.98;;;;;;;11.25;100.00;99150.66;2064839;28;20232;-73
2021/09/04 01:43:45;;;;;;;38.65;32.28;;;;;;;11.24;100.00;99143.75;2065305;28;20259;-73
2021/09/04 01:44:46;;;;;;;42.80;32.17;;;;;;;11.23;100.00;99141.38;2064667;28;20679;-73
2021/09/04 01:45:47;;;;;;;41.43;32.77;;;;;;;11.23;100.00;99144.84;2056344;28;20628;-74
2021/09/04 01:46:48;;;;;;;41.40;32.30;;;;;;;11.20;100.00;99148.09;2064416;28;20252;-74
2021/09/04 01:47:50;;;;;;;38.47;32.17;;;;;;;11.20;100.00;99147.31;2064869;28;20272;-73
2021/09/04 01:48:51;;;;;;;42.58;32.30;;;;;;;11.18;100.00;99144.94;2064540;28;20228;-74
2021/09/04 01:49:52;;;;;;;40.03;32.57;;;;;;;11.17;100.00;99151.38;2064339;28;20229;-75
2021/09/04 01:50:53;;;;;;;39.28;31.77;;;;;;;11.18;100.00;99144.13;2064532;28;20255;-74
2021/09/04 01:51:55;;;;;;;39.05;31.05;;;;;;;11.17;100.00;99145.22;2064596;28;20221;-74
2021/09/04 01:52:56;;;;;;;37.80;32.88;;;;;;;11.15;100.00;99140.19;2064387;28;20264;-74
2021/09/04 01:53:57;;;;;;;36.70;31.07;;;;;;;11.14;100.00;99141.28;2065194;28;20239;-74
2021/09/04 01:54:58;;;;;;;36.30;31.40;;;;;;;11.14;100.00;99140.50;2065100;28;20354;-74
2021/09/04 01:56:00;;;;;;;38.53;31.67;;;;;;;11.14;100.00;99132.50;2065210;28;20283;-73
2021/09/04 01:57:03;;;;;;;35.95;30.90;;;;;;;11.14;100.00;99141.28;2064476;28;20236;-73
2021/09/04 01:58:05;;;;;;;40.10;31.75;;;;;;;11.15;100.00;99136.72;2064486;28;20221;-73
2021/09/04 01:59:06;;;;;;;37.55;30.02;;;;;;;11.13;100.00;99137.03;2064333;28;20228;-74
2021/09/04 02:00:10;;;;;;;35.43;31.07;;;;;;;11.11;100.00;99133.06;2055875;28;20226;-75
2021/09/04 02:01:13;;;;;;;37.13;29.85;;;;;;;11.09;100.00;99130.69;2064397;28;20703;-73
2021/09/04 02:02:15;;;;;;;35.60;31.43;;;;;;;11.10;100.00;99129.59;2065109;28;20600;-74
2021/09/04 02:03:15;;;;;;;38.08;31.92;;;;;;;11.11;100.00;99131.19;2065171;28;20303;-73
2021/09/04 02:04:17;;;;;;;34.40;30.60;;;;;;;11.10;100.00;99126.94;2064534;28;20232;-74
2021/09/04 02:05:19;;;;;;;45.05;32.83;;;;;;;11.08;100.00;99134.47;2064205;28;20228;-73
2021/09/04 02:06:20;;;;;;;40.17;31.40;;;;;;;11.08;100.00;99128.31;2065139;28;20635;-73
2021/09/04 02:07:22;;;;;;;37.60;31.20;;;;;;;11.10;100.00;99126.16;2063715;28;20324;-76
2021/09/04 02:08:23;;;;;;;36.42;29.98;;;;;;;11.06;100.00;99128.63;2064302;28;20320;-74
2021/09/04 02:09:25;;;;;;;34.73;30.97;;;;;;;11.06;100.00;99125.97;2064660;28;20339;-73
2021/09/04 02:10:25;;;;;;;36.70;30.67;;;;;;;11.05;100.00;99135.06;2064301;28;20488;-74
2021/09/04 02:11:27;;;;;;;36.77;31.57;;;;;;;11.03;100.00;99122.00;2064896;28;20298;-73
2021/09/04 02:12:29;;;;;;;37.10;31.08;;;;;;;11.03;100.00;99129.22;2065099;28;20308;-74
2021/09/04 02:13:31;;;;;;;36.50;30.90;;;;;;;11.06;100.00;99133.19;2064247;28;20223;-73
2021/09/04 02:14:31;;;;;;;35.90;31.20;;;;;;;11.08;100.00;99131.78;2064310;28;20308;-73
2021/09/04 02:15:33;;;;;;;35.97;31.10;;;;;;;11.07;100.00;99130.22;2064194;28;20711;-74
2021/09/04 02:16:34;;;;;;;35.78;30.40;;;;;;;11.07;100.00;99137.44;2064266;28;20299;-73
2021/09/04 02:17:37;;;;;;;37.17;30.05;;;;;;;11.07;100.00;99143.56;2064367;28;20224;-74
2021/09/04 02:18:38;;;;;;;40.72;30.40;;;;;;;11.06;100.00;99136.63;2064004;28;20221;-74
2021/09/04 02:19:40;;;;;;;38.17;32.27;;;;;;;11.07;100.00;99140.88;2064489;28;20757;-74
2021/09/04 02:20:40;;;;;;;38.13;32.47;;;;;;;11.08;100.00;99144.34;2064223;28;20785;-73
2021/09/04 02:21:45;;;;;;;37.58;31.63;;;;;;;11.09;100.00;99146.72;2064154;28;20275;-73
2021/09/04 02:22:46;;;;;;;39.53;32.22;;;;;;;11.12;100.00;99143.47;2064316;28;20224;-73
2021/09/04 02:23:50;;;;;;;46.65;33.17;;;;;;;11.16;100.00;99151.66;2064950;28;20225;-74
2021/09/04 02:24:51;;;;;;;42.97;33.25;;;;;;;11.21;100.00;99149.69;2065017;28;20307;-74
2021/09/04 02:25:52;;;;;;;45.63;34.63;;;;;;;11.23;100.00;99144.84;2061860;28;20231;-76
2021/09/04 02:26:54;;;;;;;41.83;34.65;;;;;;;11.21;100.00;99139.03;2064173;28;20730;-73
2021/09/04 02:27:58;;;;;;;47.10;36.70;;;;;;;11.20;100.00;99136.63;2064100;28;20268;-74
2021/09/04 02:28:59;;;;;;;49.28;37.20;;;;;;;11.18;100.00;99134.25;2056419;28;20217;-73
2021/09/04 02:30:02;;;;;;;47.35;37.83;;;;;;;11.18;100.00;99125.44;2064229;28;20294;-74
2021/09/04 02:31:02;;;;;;;46.00;35.50;;;;;;;11.13;100.00;99126.34;2064484;28;20319;-73
2021/09/04 02:32:04;;;;;;;44.33;35.40;;;;;;;11.13;100.00;99130.91;2064207;28;20224;-73
2021/09/04 02:33:05;;;;;;;47.72;36.20;;;;;;;11.09;100.00;99130.69;2064948;28;20307;-74
2021/09/04 02:34:06;;;;;;;48.67;35.77;;;;;;;11.07;100.00;99132.88;2064879;28;20228;-73
2021/09/04 02:35:09;;;;;;;43.30;34.17;;;;;;;11.04;100.00;99130.81;2064463;28;20228;-74
2021/09/04 02:36:11;;;;;;;44.65;33.65;;;;;;;10.99;100.00;99131.69;2064761;28;20258;-73
2021/09/04 02:37:12;;;;;;;38.40;32.67;;;;;;;10.97;100.00;99136.53;2064842;28;20236;-73
2021/09/04 02:38:14;;;;;;;46.47;33.10;;;;;;;10.94;100.00;99131.78;2064844;28;20229;-73
2021/09/04 02:39:15;;;;;;;44.38;34.88;;;;;;;10.92;100.00;99141.16;2064856;28;20271;-73
2021/09/04 02:40:19;;;;;;;45.42;34.65;;;;;;;10.90;100.00;99132.69;2064923;28;20251;-74
2021/09/04 02:41:20;;;;;;;42.53;33.97;;;;;;;10.87;100.00;99127.94;2064691;28;20701;-74
2021/09/04 02:42:22;;;;;;;45.90;36.47;;;;;;;10.87;100.00;99138.63;2063998;28;20241;-73
2021/09/04 02:43:24;;;;;;;45.38;35.63;;;;;;;10.86;100.00;99134.34;2063742;28;20675;-74
2021/09/04 02:44:26;;;;;;;46.90;35.25;;;;;;;10.89;100.00;99141.78;2064829;28;20233;-73
2021/09/04 02:45:28;;;;;;;50.00;34.28;;;;;;;10.89;100.00;99136.44;2064957;28;20229;-73
2021/09/04 02:46:30;;;;;;;45.67;35.80;;;;;;;10.89;100.00;99136.44;2064408;28;20225;-74
2021/09/04 02:47:31;;;;;;;51.55;36.45;;;;;;;10.87;100.00;99133.28;2063841;28;20649;-74
2021/09/04 02:48:33;;;;;;;48.80;35.75;;;;;;;10.88;100.00;99145.53;2064255;28;20777;-73
2021/09/04 02:49:35;;;;;;;50.58;35.67;;;;;;;10.86;100.00;99143.16;2064111;28;20228;-74
2021/09/04 02:50:37;;;;;;;44.30;34.78;;;;;;;10.85;100.00;99138.88;2064256;28;20240;-73
2021/09/04 02:51:44;;;;;;;43.85;33.50;;;;;;;10.86;100.00;99137.81;2055528;28;20225;-74
2021/09/04 02:52:47;;;;;;;43.25;34.33;;;;;;;10.88;100.00;99140.19;2064100;28;20574;-73
2021/09/04 02:53:48;;;;;;;44.15;33.40;;;;;;;10.85;100.00;99130.88;2064157;28;20271;-73
2021/09/04 02:54:50;;;;;;;44.73;33.43;;;;;;;10.88;100.00;99142.88;2055914;28;20233;-73
2021/09/04 02:55:50;;;;;;;44.08;34.30;;;;;;;10.87;100.00;99133.28;2064022;28;20564;-73
2021/09/04 02:56:52;;;;;;;44.10;33.70;;;;;;;10.88;100.00;99140.97;2064692;28;20332;-74
2021/09/04 02:57:53;;;;;;;45.50;33.78;;;;;;;10.89;100.00;99139.09;2063443;28;20315;-74
2021/09/04 02:58:56;;;;;;;43.80;32.60;;;;;;;10.89;100.00;99142.56;2063951;28;20232;-74
2021/09/04 02:59:58;;;;;;;42.38;32.70;;;;;;;10.90;100.00;99132.69;2064671;28;20217;-73
2021/09/04 03:01:02;;;;;;;43.60;34.63;;;;;;;10.91;100.00;99139.59;2063948;28;20231;-74
2021/09/04 03:02:03;;;;;;;41.58;33.30;;;;;;;10.91;100.00;99144.94;2064027;28;20221;-74
2021/09/04 03:03:09;;;;;;;46.53;33.13;;;;;;;10.88;100.00;99146.31;2064263;28;20248;-73
2021/09/04 03:04:10;;;;;;;57.13;34.58;;;;;;;10.89;100.00;99147.13;2064680;28;20224;-74
2021/09/04 03:05:13;;;;;;;44.50;34.00;;;;;;;10.87;100.00;99150.09;2064426;28;21896;-73
2021/09/04 03:06:15;;;;;;;45.47;34.50;;;;;;;10.87;100.00;99144.75;2063850;28;20221;-74
2021/09/04 03:07:19;;;;;;;42.28;33.63;;;;;;;10.88;100.00;99148.19;2055989;28;20244;-74
2021/09/04 03:08:21;;;;;;;49.28;35.72;;;;;;;10.87;100.00;99143.97;2055948;28;20688;-73
2021/09/04 03:09:23;;;;;;;46.57;33.90;;;;;;;10.88;100.00;99149.00;2063531;28;20661;-75
2021/09/04 03:10:23;;;;;;;46.72;34.85;;;;;;;10.89;100.00;99147.91;2064464;28;20464;-74
2021/09/04 03:11:25;;;;;;;45.33;33.33;;;;;;;10.92;100.00;99141.97;2064668;28;20295;-73
2021/09/04 03:12:27;;;;;;;46.35;34.80;;;;;;;10.95;100.00;99145.94;2064560;28;20237;-74
2021/09/04 03:13:30;;;;;;;43.55;33.10;;;;;;;10.94;100.00;99141.66;2064527;28;20275;-73
2021/09/04 03:14:32;;;;;;;42.85;33.75;;;;;;;10.91;100.00;99139.59;2064686;28;20224;-73
2021/09/04 03:15:34;;;;;;;44.97;33.78;;;;;;;10.92;100.00;99149.19;2063663;28;20622;-73
2021/09/04 03:16:35;;;;;;;42.00;33.45;;;;;;;10.91;100.00;99144.94;2063813;28;20228;-74
2021/09/04 03:17:37;;;;;;;42.85;32.97;;;;;;;10.91;100.00;99144.94;2063331;28;20232;-75
2021/09/04 03:18:38;;;;;;;47.40;34.42;;;;;;;10.90;100.00;99138.81;2063700;28;20248;-73
2021/09/04 03:19:41;;;;;;;47.83;34.23;;;;;;;10.91;100.00;99142.25;2064499;28;20687;-73
2021/09/04 03:20:43;;;;;;;46.55;33.28;;;;;;;10.90;100.00;99138.81;2064492;28;20452;-73
2021/09/04 03:21:44;;;;;;;43.67;33.67;;;;;;;10.92;100.00;99138.50;2064537;28;20303;-74
2021/09/04 03:22:47;;;;;;;46.45;32.95;;;;;;;10.93;100.00;99132.06;2063723;28;20227;-74
2021/09/04 03:23:48;;;;;;;48.17;33.67;;;;;;;10.95;100.00;99135.25;2063871;28;20239;-74
2021/09/04 03:24:50;;;;;;;42.80;33.22;;;;;;;10.94;100.00;99129.09;2063634;28;20220;-73
2021/09/04 03:25:51;;;;;;;42.20;32.33;;;;;;;10.99;100.00;99130.91;2055338;28;20312;-75
2021/09/04 03:26:54;;;;;;;46.40;33.25;;;;;;;11.00;100.00;99127.94;2063732;28;20232;-74
2021/09/04 03:27:54;;;;;;;46.97;32.38;;;;;;;10.99;100.00;99131.69;2064331;28;20271;-73
2021/09/04 03:28:57;;;;;;;45.15;32.92;;;;;;;11.00;100.00;99124.47;2064511;28;20579;-73
2021/09/04 03:30:00;;;;;;;43.70;32.85;;;;;;;11.02;100.00;99130.28;2063624;28;20313;-74
2021/09/04 03:31:02;;;;;;;44.15;32.08;;;;;;;11.03;100.00;99129.22;2063832;28;20220;-74
2021/09/04 03:32:03;;;;;;;47.20;33.45;;;;;;;11.02;100.00;99124.97;2064417;28;20251;-74
2021/09/04 03:33:06;;;;;;;44.58;34.00;;;;;;;11.00;100.00;99127.94;2063811;28;20333;-73
2021/09/04 03:34:07;;;;;;;50.13;33.20;;;;;;;11.00;100.00;99135.16;2055263;28;20236;-75
2021/09/04 03:35:10;;;;;;;46.10;33.75;;;;;;;11.03;100.00;99131.88;2063688;28;20587;-74
2021/09/04 03:36:12;;;;;;;42.72;33.08;;;;;;;11.01;100.00;99129.50;2064377;28;20719;-74
2021/09/04 03:37:13;;;;;;;40.30;32.20;;;;;;;10.98;100.00;99123.97;2063751;28;20221;-74
2021/09/04 03:38:15;;;;;;;45.50;33.13;;;;;;;10.97;100.00;99125.06;2063701;28;20224;-73
2021/09/04 03:39:16;;;;;;;44.75;32.30;;;;;;;10.95;100.00;99125.38;2064347;28;20224;-74
2021/09/04 03:40:19;;;;;;;44.40;32.67;;;;;;;10.94;100.00;99122.97;2064349;28;20308;-74
2021/09/04 03:41:23;;;;;;;45.53;31.58;;;;;;;10.93;100.00;99129.41;2064501;28;20225;-74
2021/09/04 03:42:26;;;;;;;41.13;32.67;;;;;;;10.91;100.00;99123.56;2064084;28;20233;-74
2021/09/04 03:43:27;;;;;;;45.60;32.80;;;;;;;10.90;100.00;99128.13;2064396;28;20311;-74
2021/09/04 03:44:31;;;;;;;48.10;32.10;;;;;;;10.90;100.00;99138.00;2064376;28;20220;-74
2021/09/04 03:45:34;;;;;;;46.45;32.75;;;;;;;10.92;100.00;99144.63;2063589;28;20323;-73
2021/09/04 03:46:36;;;;;;;47.13;32.40;;;;;;;10.89;100.00;99139.09;2055699;28;20562;-74
2021/09/04 03:47:37;;;;;;;44.22;32.70;;;;;;;10.87;100.00;99135.94;2063092;28;20248;-75
2021/09/04 03:48:38;;;;;;;44.20;32.97;;;;;;;10.84;100.00;99141.84;2064094;28;20229;-74
2021/09/04 03:49:40;;;;;;;41.92;31.30;;;;;;;10.81;100.00;99139.78;2064193;28;20239;-74
2021/09/04 03:50:44;;;;;;;48.78;32.92;;;;;;;10.80;100.00;99144.34;2064336;28;20232;-73
2021/09/04 03:51:45;;;;;;;49.00;33.83;;;;;;;10.76;100.00;99149.44;2063767;28;20221;-74
2021/09/04 03:52:46;;;;;;;46.03;32.43;;;;;;;10.74;100.00;99148.97;2063651;28;20683;-73
2021/09/04 03:53:48;;;;;;;41.95;32.42;;;;;;;10.72;100.00;99148.47;2064264;28;20295;-74
2021/09/04 03:54:52;;;;;;;42.03;32.30;;;;;;;10.71;100.00;99143.44;2064309;28;20232;-74
2021/09/04 03:55:56;;;;;;;46.00;32.90;;;;;;;10.72;100.00;99147.69;2063839;28;20737;-74
2021/09/04 03:56:59;;;;;;;42.30;32.10;;;;;;;10.70;100.00;99147.97;2064083;28;20240;-74
2021/09/04 03:58:00;;;;;;;41.67;32.00;;;;;;;10.71;100.00;99151.44;2064412;28;20259;-74
2021/09/04 03:59:02;;;;;;;42.47;32.28;;;;;;;10.72;100.00;99158.34;2063737;28;20576;-74
2021/09/04 04:00:04;;;;;;;40.78;32.17;;;;;;;10.71;100.00;99159.44;2064216;28;20232;-74
2021/09/04 04:01:15;;;;;;;40.80;31.90;;;;;;;10.69;100.00;99157.06;2063879;28;20296;-74
2021/09/04 04:02:18;;;;;;;43.33;32.97;;;;;;;10.69;100.00;99157.06;2064215;28;20224;-74
2021/09/04 04:03:20;;;;;;;43.42;31.88;;;;;;;10.70;100.00;99160.53;2064215;28;20230;-73
2021/09/04 04:04:21;;;;;;;43.95;31.27;;;;;;;10.69;100.00;99158.97;2064258;28;20249;-73
2021/09/04 04:05:24;;;;;;;38.83;31.25;;;;;;;10.69;100.00;99156.28;2063611;28;20245;-74
2021/09/04 04:06:27;;;;;;;41.08;31.00;;;;;;;10.70;100.00;99156.00;2063790;28;20237;-74
2021/09/04 04:07:29;;;;;;;36.75;31.17;;;;;;;10.70;100.00;99160.53;2063534;28;20699;-73
2021/09/04 04:08:30;;;;;;;46.75;32.88;;;;;;;10.70;100.00;99165.88;2063698;28;20675;-73
2021/09/04 04:09:32;;;;;;;48.60;32.10;;;;;;;10.66;100.00;99160.31;2063487;28;20225;-73
2021/09/04 04:10:37;;;;;;;43.63;32.47;;;;;;;10.66;100.00;99154.19;2064341;28;20660;-73
2021/09/04 04:11:38;;;;;;;41.80;31.70;;;;;;;10.66;100.00;99160.31;2063901;28;20256;-74
2021/09/04 04:12:41;;;;;;;40.78;32.22;;;;;;;10.65;100.00;99153.41;2064343;28;20224;-74
2021/09/04 04:13:42;;;;;;;41.70;32.25;;;;;;;10.65;100.00;99150.72;2064257;28;20287;-73
2021/09/04 04:14:44;;;;;;;38.40;31.98;;;;;;;10.67;100.00;99156.56;2064313;28;20221;-73
2021/09/04 04:15:47;;;;;;;46.70;31.73;;;;;;;10.71;100.00;99159.44;2064280;28;20271;-74
2021/09/04 04:16:52;;;;;;;45.03;32.85;;;;;;;10.73;100.00;99154.59;2063298;28;20235;-73
2021/09/04 04:17:53;;;;;;;50.63;32.58;;;;;;;10.74;100.00;99156.97;2055182;28;20296;-74
2021/09/04 04:18:55;;;;;;;43.28;32.22;;;;;;;10.71;100.00;99157.56;2055642;28;20225;-74
2021/09/04 04:19:56;;;;;;;44.90;32.75;;;;;;;10.74;100.00;99156.97;2063526;28;20224;-73
2021/09/04 04:20:59;;;;;;;46.17;32.90;;;;;;;10.75;100.00;99158.56;2063631;28;20272;-74
2021/09/04 04:21:59;;;;;;;47.45;32.55;;;;;;;10.79;100.00;99155.31;2063586;28;20229;-74
2021/09/04 04:23:01;;;;;;;41.10;32.90;;;;;;;10.79;100.00;99161.44;2064242;28;20687;-73
2021/09/04 04:24:03;;;;;;;47.95;33.05;;;;;;;10.80;100.00;99151.56;2063420;28;20582;-73
2021/09/04 04:25:07;;;;;;;43.15;33.10;;;;;;;10.82;100.00;99160.06;2055386;28;20292;-73
2021/09/04 04:26:09;;;;;;;45.78;32.67;;;;;;;10.83;100.00;99156.28;2063150;28;20607;-74
2021/09/04 04:27:10;;;;;;;38.77;32.40;;;;;;;10.82;100.00;99160.06;2064232;28;20311;-73
2021/09/04 04:28:11;;;;;;;46.22;33.20;;;;;;;10.81;100.00;99151.25;2063596;28;22607;-73
2021/09/04 04:29:13;;;;;;;44.50;33.43;;;;;;;10.82;100.00;99157.38;2063556;28;20252;-73
2021/09/04 04:30:15;;;;;;;45.75;33.22;;;;;;;10.81;100.00;99161.94;2064049;28;20676;-73
2021/09/04 04:31:21;;;;;;;44.97;33.13;;;;;;;10.83;100.00;99158.97;2064112;28;20614;-73
2021/09/04 04:32:23;;;;;;;44.60;33.00;;;;;;;10.83;100.00;99162.41;2063778;28;20312;-73
2021/09/04 04:33:26;;;;;;;43.88;32.53;;;;;;;10.85;100.00;99164.78;2064088;28;20255;-73
2021/09/04 04:34:27;;;;;;;40.88;32.50;;;;;;;10.86;100.00;99163.69;2064292;28;20688;-73
2021/09/04 04:35:30;;;;;;;50.28;32.88;;;;;;;10.86;100.00;99159.19;2063993;28;20307;-73
2021/09/04 04:36:32;;;;;;;46.67;34.10;;;;;;;10.86;100.00;99158.38;2064229;28;20228;-74
2021/09/04 04:37:36;;;;;;;40.38;32.85;;;;;;;10.88;100.00;99166.88;2064065;28;20224;-73
2021/09/04 04:38:38;;;;;;;39.65;32.65;;;;;;;10.87;100.00;99159.97;2062882;28;20337;-74
2021/09/04 04:39:40;;;;;;;46.10;33.83;;;;;;;10.89;100.00;99160.47;2063398;28;20228;-74
2021/09/04 04:40:43;;;;;;;48.15;32.92;;;;;;;10.94;100.00;99160.34;2063346;28;20275;-74
2021/09/04 04:41:46;;;;;;;41.60;33.47;;;;;;;10.95;100.00;99172.63;2063512;28;20228;-73